createdAt,value
2019-03-10T00:02:15.276Z,97824.59
2019-03-10T00:04:47.632Z,97811.06
2019-03-10T00:07:19.892Z,97812.20
2019-03-10T00:09:52.236Z,97815.48
2019-03-10T00:12:24.209Z,97812.87
2019-03-10T00:14:56.578Z,97807.84
2019-03-10T00:17:28.486Z,97795.61
2019-03-10T00:20:00.745Z,97784.00
2019-03-10T00:22:32.744Z,97779.91
2019-03-10T00:25:05.201Z,97789.00
2019-03-10T00:27:37.184Z,97785.06
2019-03-10T00:30:09.867Z,97779.47
2019-03-10T00:32:43.184Z,97786.27
2019-03-10T00:35:15.317Z,97789.91
2019-03-10T00:37:47.219Z,97795.08
2019-03-10T00:41:05.295Z,97794.21
2019-03-10T00:44:56.809Z,97787.66
2019-03-10T00:48:00.824Z,97763.75
2019-03-10T00:51:30.218Z,97754.14
2019-03-10T00:54:02.568Z,97752.27
2019-03-10T00:56:34.564Z,97741.70
2019-03-10T00:59:07.373Z,97736.52
2019-03-10T01:01:39.581Z,97726.27
2019-03-10T01:04:11.848Z,97723.69
2019-03-10T01:06:43.936Z,97726.44
2019-03-10T01:09:15.877Z,97717.75
2019-03-10T01:11:48.735Z,97719.47
2019-03-10T01:14:20.682Z,97720.89
2019-03-10T01:16:53.299Z,97718.95
2019-03-10T01:19:26.114Z,97706.19
2019-03-10T01:22:00.431Z,97706.05
2019-03-10T01:24:32.367Z,97707.47
2019-03-10T01:27:04.681Z,97710.16
2019-03-10T01:29:37.253Z,97708.64
2019-03-10T01:32:38.301Z,97705.08
2019-03-10T01:35:20.958Z,97697.23
2019-03-10T01:37:52.853Z,97698.11
2019-03-10T01:40:24.793Z,97691.50
2019-03-10T01:42:57.113Z,97685.67
2019-03-10T01:45:29.160Z,97679.44
2019-03-10T01:48:01.031Z,97669.09
2019-03-10T01:50:33.368Z,97666.68
2019-03-10T01:53:05.365Z,97661.29
2019-03-10T01:55:39.958Z,97656.34
2019-03-10T01:58:12.170Z,97655.86
2019-03-10T02:00:44.246Z,97652.14
2019-03-10T02:03:16.547Z,97649.23
2019-03-10T02:05:48.475Z,97643.69
2019-03-10T02:08:20.365Z,97635.52
2019-03-10T02:10:52.661Z,97634.54
2019-03-10T02:13:24.552Z,97631.86
2019-03-10T02:15:56.485Z,97632.41
2019-03-10T02:18:29.219Z,97625.53
2019-03-10T02:21:01.689Z,97614.73
2019-03-10T02:23:33.591Z,97612.64
2019-03-10T02:26:05.522Z,97615.20
2019-03-10T02:28:37.729Z,97617.92
2019-03-10T02:31:09.664Z,97616.80
2019-03-10T02:33:41.555Z,97619.73
2019-03-10T02:36:13.500Z,97620.97
2019-03-10T02:38:45.412Z,97618.05
2019-03-10T02:41:17.373Z,97625.56
2019-03-10T02:43:49.692Z,97622.37
2019-03-10T02:46:21.632Z,97615.66
2019-03-10T02:48:53.522Z,97612.81
2019-03-10T02:51:25.452Z,97597.50
2019-03-10T02:53:57.335Z,97592.75
2019-03-10T02:56:29.683Z,97589.25
2019-03-10T02:59:01.607Z,97581.24
2019-03-10T03:01:34.470Z,97579.59
2019-03-10T03:04:06.902Z,97571.77
2019-03-10T03:06:39.343Z,97552.89
2019-03-10T03:09:11.658Z,97548.89
2019-03-10T03:11:43.587Z,97543.85
2019-03-10T03:14:15.580Z,97540.20
2019-03-10T03:16:47.515Z,97530.46
2019-03-10T03:19:19.405Z,97524.77
2019-03-10T03:21:51.669Z,97524.41
2019-03-10T03:24:23.978Z,97523.98
2019-03-10T03:26:55.983Z,97513.59
2019-03-10T03:29:28.869Z,97504.22
2019-03-10T03:32:01.227Z,97505.73
2019-03-10T03:34:33.126Z,97488.88
2019-03-10T03:37:05.370Z,97486.86
2019-03-10T03:39:47.284Z,97485.98
2019-03-10T03:42:19.538Z,97483.52
2019-03-10T03:44:51.769Z,97486.53
2019-03-10T03:47:23.695Z,97485.54
2019-03-10T03:49:55.917Z,97481.30
2019-03-10T03:52:28.157Z,97462.63
2019-03-10T03:55:00.056Z,97460.09
2019-03-10T03:57:31.986Z,97462.34
2019-03-10T04:00:04.730Z,97462.23
2019-03-10T04:02:40.459Z,97460.02
2019-03-10T04:05:13.134Z,97452.81
2019-03-10T04:07:45.175Z,97457.86
2019-03-10T04:10:17.534Z,97453.86
2019-03-10T04:12:49.778Z,97455.70
2019-03-10T04:15:22.106Z,97450.98
2019-03-10T04:17:54.769Z,97447.37
2019-03-10T04:20:26.689Z,97440.67
2019-03-10T04:22:59.267Z,97434.09
2019-03-10T04:25:31.199Z,97432.22
2019-03-10T04:28:03.555Z,97413.97
2019-03-10T04:30:35.798Z,97405.72
2019-03-10T04:33:07.752Z,97401.39
2019-03-10T04:35:40.525Z,97400.75
2019-03-10T04:38:13.205Z,97403.34
2019-03-10T04:40:45.547Z,97403.11
2019-03-10T04:43:17.480Z,97403.95
2019-03-10T04:45:49.517Z,97399.66
2019-03-10T04:48:21.466Z,97389.59
2019-03-10T04:50:53.419Z,97389.67
2019-03-10T04:53:25.679Z,97385.54
2019-03-10T04:56:03.368Z,97374.95
2019-03-10T04:58:38.605Z,97372.94
2019-03-10T05:01:10.538Z,97359.78
2019-03-10T05:03:42.782Z,97349.33
2019-03-10T05:06:15.131Z,97347.08
2019-03-10T05:08:47.489Z,97345.19
2019-03-10T05:11:19.441Z,97343.25
2019-03-10T05:13:51.695Z,97330.02
2019-03-10T05:16:23.631Z,97320.08
2019-03-10T05:18:56.001Z,97316.23
2019-03-10T05:21:28.254Z,97311.67
2019-03-10T05:24:05.653Z,97305.82
2019-03-10T05:26:37.890Z,97301.53
2019-03-10T05:29:09.840Z,97304.19
2019-03-10T05:31:41.770Z,97291.64
2019-03-10T05:34:13.703Z,97279.89
2019-03-10T05:36:45.631Z,97268.56
2019-03-10T05:39:17.574Z,97257.42
2019-03-10T05:41:49.943Z,97243.48
2019-03-10T05:44:22.301Z,97239.12
2019-03-10T05:46:54.242Z,97239.52
2019-03-10T05:49:26.818Z,97238.12
2019-03-10T05:51:58.744Z,97237.13
2019-03-10T05:54:30.678Z,97236.44
2019-03-10T05:57:03.049Z,97234.52
2019-03-10T05:59:35.445Z,97227.11
2019-03-10T06:02:07.600Z,97226.95
2019-03-10T06:04:39.573Z,97227.55
2019-03-10T06:07:11.928Z,97223.70
2019-03-10T06:09:43.881Z,97216.89
2019-03-10T06:12:16.506Z,97210.89
2019-03-10T06:14:48.441Z,97211.97
2019-03-10T06:17:21.534Z,97205.69
2019-03-10T06:19:53.586Z,97201.31
2019-03-10T06:22:25.526Z,97190.98
2019-03-10T06:24:57.458Z,97192.83
2019-03-10T06:27:29.392Z,97189.58
2019-03-10T06:30:01.766Z,97189.10
2019-03-10T06:32:33.705Z,97182.05
2019-03-10T06:35:06.681Z,97178.41
2019-03-10T06:37:38.609Z,97177.41
2019-03-10T06:40:11.002Z,97168.33
2019-03-10T06:42:42.933Z,97161.24
2019-03-10T06:45:14.867Z,97165.77
2019-03-10T06:47:46.799Z,97162.68
2019-03-10T06:50:19.159Z,97151.75
2019-03-10T06:52:51.069Z,97154.39
2019-03-10T06:55:23.693Z,97157.31
2019-03-10T06:57:55.968Z,97150.78
2019-03-10T07:00:28.718Z,97144.41
2019-03-10T07:03:00.663Z,97130.77
2019-03-10T07:05:32.599Z,97134.00
2019-03-10T07:08:04.845Z,97131.56
2019-03-10T07:10:37.092Z,97123.27
2019-03-10T07:13:09.020Z,97121.42
2019-03-10T07:15:40.941Z,97110.85
2019-03-10T07:18:12.868Z,97096.77
2019-03-10T07:20:45.537Z,97094.67
2019-03-10T07:23:19.545Z,97101.28
2019-03-10T07:26:07.133Z,97092.31
2019-03-10T07:29:01.222Z,97091.36
2019-03-10T07:31:42.891Z,97077.87
2019-03-10T07:34:36.057Z,97067.70
2019-03-10T07:37:17.686Z,97075.44
2019-03-10T07:40:06.827Z,97081.84
2019-03-10T07:42:44.284Z,97079.61
2019-03-10T07:45:29.501Z,97082.48
2019-03-10T07:48:35.578Z,97074.25
2019-03-10T07:51:26.657Z,97058.27
2019-03-10T07:54:08.172Z,97056.15
2019-03-10T07:57:05.189Z,97034.21
2019-03-10T07:59:55.985Z,97040.69
2019-03-10T08:02:34.510Z,97033.31
2019-03-10T08:05:19.119Z,97021.27
2019-03-10T08:07:56.237Z,97023.75
2019-03-10T08:10:52.893Z,96995.55
2019-03-10T08:13:43.198Z,97016.39
2019-03-10T08:16:29.223Z,96994.33
2019-03-10T08:19:10.344Z,96987.81
2019-03-10T08:21:55.393Z,97001.53
2019-03-10T08:24:55.511Z,97001.33
2019-03-10T08:28:01.453Z,97008.41
2019-03-10T08:30:53.073Z,96981.31
2019-03-10T08:33:50.051Z,96973.47
2019-03-10T08:36:44.240Z,96968.18
2019-03-10T08:39:31.087Z,96972.22
2019-03-10T08:42:23.853Z,96962.56
2019-03-10T08:45:14.624Z,96962.11
2019-03-10T08:48:11.517Z,96965.09
2019-03-10T08:51:05.028Z,96944.82
2019-03-10T08:53:42.412Z,96945.84
2019-03-10T08:56:33.500Z,96948.08
2019-03-10T08:59:30.350Z,96937.73
2019-03-10T09:02:21.464Z,96910.91
2019-03-10T09:05:12.350Z,96930.69
2019-03-10T09:07:51.340Z,96924.91
2019-03-10T09:10:45.557Z,96928.12
2019-03-10T09:13:42.340Z,96915.34
2019-03-10T09:16:38.860Z,96911.66
2019-03-10T09:19:28.899Z,96900.19
2019-03-10T09:22:26.630Z,96896.34
2019-03-10T09:25:12.982Z,96878.09
2019-03-10T09:27:59.769Z,96868.70
2019-03-10T09:30:52.991Z,96861.31
2019-03-10T09:33:42.533Z,96851.70
2019-03-10T09:36:41.051Z,96839.59
2019-03-10T09:39:23.702Z,96836.31
2019-03-10T09:42:32.686Z,96818.53
2019-03-10T09:45:35.334Z,96814.26
2019-03-10T09:48:29.582Z,96819.02
2019-03-10T09:51:32.467Z,96812.17
2019-03-10T09:54:18.118Z,96804.58
2019-03-10T09:57:27.845Z,96812.14
2019-03-10T10:00:24.438Z,96803.26
2019-03-10T10:03:15.350Z,96795.77
2019-03-10T10:06:09.398Z,96791.69
2019-03-10T10:09:09.617Z,96787.27
2019-03-10T10:11:53.316Z,96781.08
2019-03-10T10:14:50.521Z,96768.52
2019-03-10T10:17:50.375Z,96765.83
2019-03-10T10:20:38.988Z,96765.18
2019-03-10T10:23:28.807Z,96753.63
2019-03-10T10:26:19.841Z,96745.49
2019-03-10T10:29:13.954Z,96741.84
2019-03-10T10:31:57.075Z,96733.20
2019-03-10T10:34:37.374Z,96735.06
2019-03-10T10:37:17.276Z,96736.64
2019-03-10T10:40:04.998Z,96733.70
2019-03-10T10:42:58.753Z,96729.13
2019-03-10T10:45:48.530Z,96723.94
2019-03-10T10:48:39.698Z,96717.38
2019-03-10T10:51:31.237Z,96711.31
2019-03-10T10:54:22.116Z,96704.13
2019-03-10T10:57:21.758Z,96703.19
2019-03-10T11:00:15.765Z,96697.80
2019-03-10T11:03:06.986Z,96699.61
2019-03-10T11:05:51.031Z,96688.28
2019-03-10T11:08:34.085Z,96688.66
2019-03-10T11:11:38.063Z,96685.53
2019-03-10T11:14:19.943Z,96679.31
2019-03-10T11:17:28.845Z,96656.59
2019-03-10T11:20:07.465Z,96650.68
2019-03-10T11:23:04.342Z,96649.60
2019-03-10T11:25:53.895Z,96635.38
2019-03-10T11:28:45.329Z,96626.42
2019-03-10T11:31:42.842Z,96629.69
2019-03-10T11:34:38.688Z,96621.32
2019-03-10T11:37:32.544Z,96615.19
2019-03-10T11:40:27.807Z,96611.16
2019-03-10T11:43:11.423Z,96597.59
2019-03-10T11:46:06.952Z,96598.75
2019-03-10T11:48:45.268Z,96590.50
2019-03-10T11:51:41.939Z,96607.11
2019-03-10T11:54:26.377Z,96594.21
2019-03-10T11:57:06.914Z,96578.27
2019-03-10T11:59:58.862Z,96572.95
2019-03-10T12:02:45.240Z,96569.38
2019-03-10T12:05:53.925Z,96560.05
2019-03-10T12:08:44.745Z,96561.17
2019-03-10T12:11:17.691Z,96542.77
2019-03-10T12:13:50.169Z,96541.49
2019-03-10T12:16:23.694Z,96521.98
2019-03-10T12:18:56.417Z,96516.82
2019-03-10T12:21:28.831Z,96511.80
2019-03-10T12:24:01.661Z,96505.00
2019-03-10T12:26:34.535Z,96504.67
2019-03-10T12:29:06.798Z,96506.77
2019-03-10T12:31:38.892Z,96489.48
2019-03-10T12:34:10.959Z,96483.66
2019-03-10T12:36:43.033Z,96486.71
2019-03-10T12:39:17.161Z,96476.53
2019-03-10T12:41:57.936Z,96482.64
2019-03-10T12:44:23.043Z,96490.73
2019-03-10T12:46:55.896Z,96502.53
2019-03-10T12:49:28.259Z,96515.41
2019-03-10T12:52:00.290Z,96523.97
2019-03-10T12:54:33.044Z,96517.09
2019-03-10T12:57:05.068Z,96529.17
2019-03-10T12:59:37.859Z,96518.46
2019-03-10T13:02:10.338Z,96516.41
2019-03-10T13:04:42.808Z,96515.09
2019-03-10T13:07:14.830Z,96515.01
2019-03-10T13:09:48.430Z,96502.41
2019-03-10T13:12:23.851Z,96509.73
2019-03-10T13:14:59.827Z,96506.20
2019-03-10T13:17:33.351Z,96508.97
2019-03-10T13:20:07.838Z,96516.89
2019-03-10T13:22:40.355Z,96504.78
2019-03-10T13:25:12.674Z,96495.63
2019-03-10T13:27:45.439Z,96516.77
2019-03-10T13:30:20.103Z,96500.77
2019-03-10T13:32:52.122Z,96486.52
2019-03-10T13:35:24.197Z,96502.78
2019-03-10T13:37:56.650Z,96485.91
2019-03-10T13:40:29.266Z,96477.23
2019-03-10T13:43:01.355Z,96475.80
2019-03-10T13:45:33.332Z,96478.46
2019-03-10T13:48:05.627Z,96481.70
2019-03-10T13:50:37.939Z,96473.95
2019-03-10T13:53:10.125Z,96476.77
2019-03-10T13:55:42.694Z,96468.39
2019-03-10T13:58:14.795Z,96487.12
2019-03-10T14:00:47.311Z,96463.45
2019-03-10T14:03:19.462Z,96487.81
2019-03-10T14:05:51.816Z,96487.40
2019-03-10T14:08:24.335Z,96472.63
2019-03-10T14:10:56.738Z,96487.48
2019-03-10T14:13:29.250Z,96475.39
2019-03-10T14:16:01.309Z,96514.17
2019-03-10T14:18:34.067Z,96508.89
2019-03-10T14:21:06.574Z,96503.72
2019-03-10T14:23:39.405Z,96499.31
2019-03-10T14:26:11.920Z,96481.56
2019-03-10T14:28:44.313Z,96501.20
2019-03-10T14:31:16.694Z,96500.14
2019-03-10T14:33:48.801Z,96506.61
2019-03-10T14:36:20.869Z,96512.36
2019-03-10T14:38:53.795Z,96504.77
2019-03-10T14:41:26.093Z,96498.43
2019-03-10T14:43:58.503Z,96496.61
2019-03-10T14:46:31.001Z,96502.41
2019-03-10T14:49:03.768Z,96517.11
2019-03-10T14:51:36.564Z,96506.45
2019-03-10T14:54:08.990Z,96526.96
2019-03-10T14:56:41.749Z,96542.09
2019-03-10T14:59:13.864Z,96535.75
2019-03-10T15:01:47.060Z,96542.43
2019-03-10T15:04:19.473Z,96546.13
2019-03-10T15:06:52.096Z,96551.27
2019-03-10T15:09:24.605Z,96528.59
2019-03-10T15:11:57.110Z,96537.03
2019-03-10T15:14:29.441Z,96551.55
2019-03-10T15:17:02.285Z,96556.44
2019-03-10T15:19:34.355Z,96561.30
2019-03-10T15:22:06.416Z,96533.73
2019-03-10T15:24:39.859Z,96538.53
2019-03-10T15:27:22.820Z,96542.72
2019-03-10T15:29:46.061Z,96567.30
2019-03-10T15:32:18.448Z,96539.13
2019-03-10T15:34:50.451Z,96536.27
2019-03-10T15:37:22.759Z,96549.18
2019-03-10T15:39:55.226Z,96574.72
2019-03-10T15:42:27.595Z,96568.09
2019-03-10T15:45:00.329Z,96557.00
2019-03-10T15:47:32.824Z,96552.19
2019-03-10T15:50:06.254Z,96585.50
2019-03-10T15:52:39.085Z,96575.66
2019-03-10T15:55:11.799Z,96586.27
2019-03-10T15:57:50.269Z,96593.23
2019-03-10T16:00:19.792Z,96582.78
2019-03-10T16:02:52.365Z,96583.66
2019-03-10T16:05:25.098Z,96603.22
2019-03-10T16:07:57.705Z,96580.00
2019-03-10T16:10:30.091Z,96618.02
2019-03-10T16:13:02.472Z,96621.75
2019-03-10T16:15:35.116Z,96630.88
2019-03-10T16:18:08.165Z,96621.50
2019-03-10T16:20:40.924Z,96655.52
2019-03-10T16:23:13.405Z,96672.15
2019-03-10T16:25:46.152Z,96654.46
2019-03-10T16:28:18.202Z,96676.68
2019-03-10T16:30:50.646Z,96689.31
2019-03-10T16:33:25.352Z,96693.33
2019-03-10T16:35:57.182Z,96715.43
2019-03-10T16:38:29.664Z,96712.55
2019-03-10T16:41:02.594Z,96708.02
2019-03-10T16:43:34.576Z,96727.81
2019-03-10T16:46:07.101Z,96738.44
2019-03-10T16:48:40.131Z,96730.67
2019-03-10T16:51:12.226Z,96747.42
2019-03-10T16:53:44.201Z,96762.25
2019-03-10T16:56:16.612Z,96766.56
2019-03-10T16:58:48.908Z,96763.48
2019-03-10T17:01:21.147Z,96776.20
2019-03-10T17:03:53.953Z,96791.47
2019-03-10T17:06:26.825Z,96765.00
2019-03-10T17:08:59.316Z,96789.97
2019-03-10T17:11:32.246Z,96797.02
2019-03-10T17:14:06.991Z,96788.77
2019-03-10T17:16:39.513Z,96810.00
2019-03-10T17:19:12.317Z,96830.30
2019-03-10T17:21:45.188Z,96844.07
2019-03-10T17:24:17.678Z,96838.71
2019-03-10T17:26:50.111Z,96847.82
2019-03-10T17:29:24.005Z,96848.61
2019-03-10T17:31:56.431Z,96858.91
2019-03-10T17:34:28.799Z,96893.66
2019-03-10T17:37:01.244Z,96880.85
2019-03-10T17:39:33.304Z,96896.55
2019-03-10T17:42:05.674Z,96906.44
2019-03-10T17:44:41.517Z,96883.71
2019-03-10T17:47:12.200Z,96904.44
2019-03-10T17:49:44.354Z,96931.31
2019-03-10T17:52:17.186Z,96929.20
2019-03-10T17:54:49.434Z,96917.15
2019-03-10T17:57:26.554Z,96964.04
2019-03-10T17:59:58.698Z,96972.16
2019-03-10T18:02:36.501Z,96974.34
2019-03-10T18:05:10.012Z,96990.35
2019-03-10T18:07:42.638Z,96993.88
2019-03-10T18:10:15.278Z,96995.33
2019-03-10T18:12:47.902Z,97022.09
2019-03-10T18:15:21.075Z,97025.14
2019-03-10T18:17:53.594Z,97027.94
2019-03-10T18:20:26.281Z,97043.45
2019-03-10T18:22:58.872Z,97036.08
2019-03-10T18:25:30.897Z,97057.88
2019-03-10T18:28:06.214Z,97044.30
2019-03-10T18:30:38.186Z,97041.81
2019-03-10T18:33:10.959Z,97070.09
2019-03-10T18:35:42.945Z,97061.95
2019-03-10T18:38:15.803Z,97059.34
2019-03-10T18:40:48.104Z,97047.55
2019-03-10T18:43:21.737Z,97062.16
2019-03-10T18:45:54.846Z,97054.98
2019-03-10T18:48:27.134Z,97073.60
2019-03-10T18:50:59.587Z,97058.90
2019-03-10T18:53:31.550Z,97093.62
2019-03-10T18:56:03.459Z,97087.63
2019-03-10T18:58:35.416Z,97103.38
2019-03-10T19:01:08.505Z,97088.19
2019-03-10T19:03:41.401Z,97088.45
2019-03-10T19:06:14.024Z,97096.73
2019-03-10T19:08:46.307Z,97099.92
2019-03-10T19:11:18.639Z,97098.72
2019-03-10T19:13:50.962Z,97101.58
2019-03-10T19:16:23.851Z,97125.06
2019-03-10T19:18:55.785Z,97147.91
2019-03-10T19:21:28.331Z,97139.78
2019-03-10T19:24:02.309Z,97155.96
2019-03-10T19:26:34.949Z,97149.53
2019-03-10T19:29:07.314Z,97142.57
2019-03-10T19:31:39.213Z,97150.35
2019-03-10T19:34:11.595Z,97163.35
2019-03-10T19:36:44.487Z,97138.73
2019-03-10T19:39:16.955Z,97142.62
2019-03-10T19:41:48.870Z,97175.41
2019-03-10T19:44:21.466Z,97185.95
2019-03-10T19:46:54.174Z,97179.30
2019-03-10T19:49:26.536Z,97185.45
2019-03-10T19:51:58.462Z,97172.64
2019-03-10T19:54:31.531Z,97194.08
2019-03-10T19:57:03.746Z,97205.14
2019-03-10T19:59:35.997Z,97211.94
2019-03-10T20:02:08.783Z,97226.33
2019-03-10T20:04:41.047Z,97268.13
2019-03-10T20:07:13.321Z,97256.68
2019-03-10T20:09:45.940Z,97318.68
2019-03-10T20:12:18.274Z,97339.95
2019-03-10T20:14:50.893Z,97368.09
2019-03-10T20:17:23.115Z,97381.23
2019-03-10T20:19:55.901Z,97378.63
2019-03-10T20:22:28.108Z,97405.45
2019-03-10T20:25:00.044Z,97421.26
2019-03-10T20:27:32.260Z,97481.62
2019-03-10T20:30:04.375Z,97434.68
2019-03-10T20:32:37.227Z,97424.26
2019-03-10T20:35:09.975Z,97447.27
2019-03-10T20:37:42.580Z,97420.89
2019-03-10T20:40:16.841Z,97417.02
2019-03-10T20:42:49.598Z,97418.52
2019-03-10T20:45:24.268Z,97437.31
2019-03-10T20:47:56.829Z,97451.84
2019-03-10T20:50:29.735Z,97460.49
2019-03-10T20:53:01.647Z,97458.27
2019-03-10T20:55:34.211Z,97459.91
2019-03-10T20:58:07.099Z,97459.36
2019-03-10T21:00:39.676Z,97469.34
2019-03-10T21:03:11.691Z,97480.09
2019-03-10T21:05:44.294Z,97493.03
2019-03-10T21:08:16.503Z,97492.27
2019-03-10T21:10:48.448Z,97507.63
2019-03-10T21:13:20.349Z,97507.36
2019-03-10T21:15:53.020Z,97518.53
2019-03-10T21:18:28.081Z,97511.44
2019-03-10T21:21:00.651Z,97528.23
2019-03-10T21:23:32.966Z,97534.07
2019-03-10T21:26:05.723Z,97534.56
2019-03-10T21:28:37.939Z,97542.09
2019-03-10T21:31:09.876Z,97547.83
2019-03-10T21:33:41.779Z,97549.95
2019-03-10T21:36:13.714Z,97554.16
2019-03-10T21:38:46.589Z,97553.08
2019-03-10T21:41:18.528Z,97563.23
2019-03-10T21:43:50.531Z,97558.98
2019-03-10T21:46:22.749Z,97572.98
2019-03-10T21:48:55.138Z,97581.11
2019-03-10T21:51:27.864Z,97577.49
2019-03-10T21:54:00.587Z,97576.87
2019-03-10T21:56:32.943Z,97586.41
2019-03-10T21:59:05.265Z,97596.86
2019-03-10T22:01:37.183Z,97600.78
2019-03-10T22:04:09.117Z,97597.23
2019-03-10T22:06:42.157Z,97618.30
2019-03-10T22:09:14.160Z,97619.21
2019-03-10T22:11:46.567Z,97622.87
2019-03-10T22:14:20.188Z,97612.64
2019-03-10T22:16:52.962Z,97625.42
2019-03-10T22:19:24.857Z,97634.25
2019-03-10T22:21:57.524Z,97645.09
2019-03-10T22:24:30.683Z,97649.86
2019-03-10T22:27:03.348Z,97657.45
2019-03-10T22:29:35.567Z,97658.23
2019-03-10T22:32:07.532Z,97662.63
2019-03-10T22:34:39.420Z,97667.27
2019-03-10T22:37:11.358Z,97674.41
2019-03-10T22:39:43.621Z,97681.80
2019-03-10T22:42:15.549Z,97681.56
2019-03-10T22:44:47.759Z,97667.01
2019-03-10T22:47:19.698Z,97671.55
2019-03-10T22:49:52.225Z,97666.17
2019-03-10T22:52:25.462Z,97669.68
2019-03-10T22:54:57.349Z,97671.69
2019-03-10T22:57:30.129Z,97683.58
2019-03-10T23:00:02.452Z,97688.36
2019-03-10T23:02:34.673Z,97692.41
2019-03-10T23:05:06.821Z,97701.45
2019-03-10T23:07:39.374Z,97706.08
2019-03-10T23:10:12.759Z,97713.33
2019-03-10T23:12:46.315Z,97720.44
2019-03-10T23:15:18.322Z,97740.90
2019-03-10T23:17:50.253Z,97744.14
2019-03-10T23:20:22.506Z,97751.98
2019-03-10T23:22:54.441Z,97753.20
2019-03-10T23:25:26.366Z,97748.62
2019-03-10T23:27:58.610Z,97748.17
2019-03-10T23:30:30.556Z,97754.80
2019-03-10T23:33:02.616Z,97755.45
2019-03-10T23:35:35.284Z,97754.39
2019-03-10T23:38:08.022Z,97771.39
2019-03-10T23:40:39.952Z,97766.91
2019-03-10T23:43:11.885Z,97769.56
2019-03-10T23:45:44.225Z,97775.79
2019-03-10T23:48:17.007Z,97772.19
2019-03-10T23:50:49.356Z,97784.64
2019-03-10T23:53:21.281Z,97777.62
2019-03-10T23:55:53.356Z,97781.66
2019-03-10T23:58:25.289Z,97784.53
